Time;durP1;ratioP1;P1;durP2;ratioP2;P2;SDS_P1;SDS_P2;PMS_P1;PMS_P2;Temp;Humidity;BMP_temperature;BMP_pressure;BME280_temperature;BME280_humidity;BME280_pressure;Samples;Min_cycle;Max_cycle;Signal;HPM_P1;HPM_P2
2022/11/15 00:02:28;;;;;;;11.15;7.05;;;2.70;7.30;;;3.35;100.00;99849.69;5168827;27;39995;-78
2022/11/15 00:05:15;;;;;;;11.95;6.93;;;2.70;8.00;;;3.22;100.00;99850.91;5168412;27;41809;-80
2022/11/15 00:08:02;;;;;;;11.15;6.95;;;2.70;9.00;;;3.15;100.00;99851.13;5141678;27;41407;-78
2022/11/15 00:10:58;;;;;;;13.48;7.15;;;2.60;11.60;;;3.03;100.00;99843.22;5147579;27;39986;-78
2022/11/15 00:13:45;;;;;;;12.60;7.15;;;2.60;12.40;;;3.07;100.00;99838.19;5147543;27;40029;-80
2022/11/15 00:16:32;;;;;;;10.73;6.43;;;2.60;15.90;;;3.09;100.00;99835.25;5147469;27;41891;-79
2022/11/15 00:19:19;;;;;;;12.45;7.40;;;2.60;17.50;;;3.15;100.00;99824.31;5147558;27;42130;-79
2022/11/15 00:22:06;;;;;;;11.30;7.57;;;2.70;17.80;;;3.27;100.00;99815.28;5149955;27;41105;-80
2022/11/15 00:24:53;;;;;;;11.40;7.45;;;2.70;18.40;;;3.20;100.00;99816.31;5147549;27;41092;-78
2022/11/15 00:27:42;;;;;;;15.00;7.68;;;2.70;18.10;;;3.17;100.00;99818.69;5147540;27;41837;-80
2022/11/15 00:30:29;;;;;;;13.18;7.30;;;2.60;23.00;;;3.22;100.00;99824.91;5147731;27;42195;-80
2022/11/15 00:33:16;;;;;;;;;;;2.70;25.40;;;3.21;100.00;99817.94;5148227;27;41095;-79
2022/11/15 00:36:05;;;;;;;10.80;6.88;;;2.70;24.90;;;3.27;100.00;99799.19;5147458;27;39747;-79
2022/11/15 00:38:52;;;;;;;10.68;7.15;;;2.70;25.00;;;3.30;100.00;99798.69;5148197;27;41641;-78
2022/11/15 00:41:39;;;;;;;13.13;7.10;;;2.70;25.20;;;3.18;100.00;99796.97;5147119;27;42572;-78
2022/11/15 00:44:27;;;;;;;10.88;6.50;;;2.70;23.20;;;3.27;100.00;99785.78;5147107;27;40232;-78
2022/11/15 00:47:14;;;;;;;10.30;7.05;;;2.80;24.50;;;3.24;100.00;99779.03;5147108;27;41103;-79
2022/11/15 00:50:00;;;;;;;10.83;6.67;;;2.70;23.00;;;3.22;100.00;99773.13;5146519;27;41600;-78
2022/11/15 00:52:47;;;;;;;10.13;6.32;;;2.70;24.00;;;3.32;100.00;99767.84;5146969;27;42373;-80
2022/11/15 00:55:34;;;;;;;10.98;7.25;;;2.70;26.60;;;3.23;100.00;99777.44;5145945;27;40138;-81
2022/11/15 00:58:21;;;;;;;10.77;6.78;;;2.70;26.80;;;3.08;100.00;99764.69;5147143;27;40849;-80
2022/11/15 01:01:13;;;;;;;11.57;6.70;;;2.60;30.10;;;3.01;100.00;99778.31;5146703;27;42246;-80
2022/11/15 01:04:00;;;;;;;10.00;6.43;;;2.50;34.10;;;3.11;100.00;99772.22;5146771;27;42224;-80
2022/11/15 01:06:46;;;;;;;11.88;6.57;;;2.50;31.90;;;3.03;100.00;99767.34;5166650;27;40531;-79
2022/11/15 01:09:33;;;;;;;10.98;6.53;;;2.40;35.50;;;3.07;100.00;99760.41;5167775;27;39976;-78
2022/11/15 01:12:20;;;;;;;9.95;6.28;;;2.50;39.50;;;3.03;100.00;99760.09;5167734;27;42659;-78
2022/11/15 01:15:08;;;;;;;11.65;6.63;;;2.50;38.80;;;3.01;100.00;99758.75;5167635;27;42396;-78
2022/11/15 01:17:57;;;;;;;11.80;7.10;;;2.60;38.30;;;3.04;100.00;99764.41;5166968;27;41536;-80
2022/11/15 01:20:44;;;;;;;12.13;7.07;;;2.60;38.20;;;3.06;100.00;99750.75;5167637;27;40949;-79
2022/11/15 01:23:31;;;;;;;11.25;6.95;;;2.60;35.00;;;3.02;100.00;99746.94;5167438;27;42884;-79
2022/11/15 01:26:18;;;;;;;12.27;7.65;;;2.50;36.80;;;3.01;100.00;99745.34;5151917;27;42034;-79
2022/11/15 01:29:05;;;;;;;13.77;8.63;;;2.50;35.00;;;2.94;100.00;99740.16;5167495;27;39981;-77
2022/11/15 01:31:54;;;;;;;13.73;8.20;;;2.40;40.50;;;2.97;100.00;99728.16;5167652;27;39850;-79
2022/11/15 01:34:43;;;;;;;15.57;8.93;;;2.50;43.20;;;3.06;100.00;99726.63;5167186;27;41778;-78
2022/11/15 01:37:30;;;;;;;14.07;8.13;;;2.50;42.30;;;3.03;100.00;99719.06;5167347;27;41418;-78
2022/11/15 01:40:17;;;;;;;14.55;8.38;;;2.50;44.30;;;2.81;100.00;99711.94;5169933;27;41070;-79
2022/11/15 01:43:23;;;;;;;14.38;8.27;;;2.40;41.00;;;2.70;100.00;99707.53;5167277;27;40089;-79
2022/11/15 01:46:32;;;;;;;14.85;8.88;;;2.30;45.10;;;2.81;100.00;99706.56;5166654;27;41770;-77
2022/11/15 01:49:22;;;;;;;12.98;8.30;;;2.30;50.50;;;2.87;100.00;99705.53;5166973;27;41671;-78
2022/11/15 01:52:18;;;;;;;15.82;9.27;;;2.30;50.70;;;2.73;100.00;99698.16;5167182;27;41291;-77
2022/11/15 01:55:10;;;;;;;15.18;9.65;;;2.20;51.50;;;2.54;100.00;99690.53;5167030;27;41317;-77
2022/11/15 01:58:03;;;;;;;15.25;8.35;;;2.20;47.90;;;2.59;100.00;99695.13;5166866;27;42401;-78
2022/11/15 02:00:51;;;;;;;16.30;9.30;;;2.10;54.20;;;2.63;100.00;99693.53;5167277;27;41233;-79
2022/11/15 02:03:47;;;;;;;19.92;9.68;;;2.10;58.10;;;2.65;100.00;99686.03;5166879;27;40354;-78
2022/11/15 02:06:35;;;;;;;17.98;10.18;;;2.10;62.70;;;2.79;100.00;99692.63;5151773;27;39122;-77
2022/11/15 02:09:24;;;;;;;18.58;11.00;;;2.20;71.60;;;2.86;100.00;99677.09;5150993;27;40998;-79
2022/11/15 02:12:14;;;;;;;18.30;9.98;;;2.20;71.70;;;2.79;100.00;99668.50;5149504;27;41952;-77
2022/11/15 02:15:02;;;;;;;16.33;9.65;;;2.20;80.40;;;2.78;100.00;99672.22;5164771;27;41489;-79
2022/11/15 02:18:09;;;;;;;16.05;9.63;;;2.20;78.40;;;2.60;100.00;99661.88;5170302;27;41862;-78
2022/11/15 02:21:12;;;;;;;18.25;9.30;;;2.10;77.90;;;2.54;100.00;99662.91;5170250;27;41488;-79
2022/11/15 02:24:53;;;;;;;18.50;9.80;;;2.00;75.30;;;2.58;100.00;99664.00;5170157;27;41329;-79
2022/11/15 02:28:22;;;;;;;20.83;10.57;;;2.00;77.40;;;2.54;100.00;99649.50;5170227;27;40837;-79
2022/11/15 02:31:18;;;;;;;17.98;9.30;;;2.00;73.20;;;2.73;100.00;99656.13;5154816;27;39048;-80
2022/11/15 02:34:17;;;;;;;16.35;8.55;;;2.00;83.30;;;2.70;100.00;99643.22;5170137;27;41703;-79
2022/11/15 02:37:14;;;;;;;18.33;9.18;;;2.00;83.30;;;2.51;100.00;99658.88;5170106;27;41399;-80
2022/11/15 02:40:12;;;;;;;19.33;9.20;;;2.00;83.30;;;2.50;100.00;99652.69;5172520;27;41029;-81
2022/11/15 02:47:12;;;;;;;20.00;10.25;;;2.00;91.50;;;2.58;100.00;99642.59;5148372;27;41940;-79
2022/11/15 02:49:35;;;;;;;21.17;10.13;;;2.00;94.40;;;2.69;100.00;99644.28;5151719;27;41999;-77
2022/11/15 02:52:26;;;;;;;24.45;11.27;;;2.00;96.80;;;2.70;100.00;99645.91;5134234;27;38685;-78
2022/11/15 02:55:29;;;;;;;21.80;11.07;;;2.10;97.50;;;2.71;100.00;99642.13;5149228;27;40719;-78
2022/11/15 02:58:43;;;;;;;20.02;10.50;;;2.00;97.20;;;2.75;100.00;99634.41;5148698;27;42618;-78
2022/11/15 03:01:47;;;;;;;20.95;10.38;;;2.10;99.10;;;2.68;100.00;99632.75;5148731;27;42203;-78
2022/11/15 03:04:44;;;;;;;22.63;10.02;;;2.10;99.10;;;2.59;100.00;99623.56;5133324;27;40770;-79
2022/11/15 03:07:38;;;;;;;18.20;8.37;;;2.10;99.90;;;2.44;100.00;99621.56;5148812;27;39772;-78
2022/11/15 03:10:37;;;;;;;18.40;9.00;;;1.90;99.90;;;2.41;100.00;99627.41;5148754;27;41597;-77
2022/11/15 03:13:32;;;;;;;19.02;9.23;;;1.90;99.90;;;2.39;100.00;99624.19;5148652;27;41234;-78
2022/11/15 03:16:25;;;;;;;16.95;8.68;;;1.90;99.90;;;2.38;100.00;99624.44;5147964;27;42023;-79
2022/11/15 03:19:19;;;;;;;15.73;7.45;;;1.90;99.90;;;2.34;100.00;99626.84;5147356;27;41096;-80
2022/11/15 03:22:10;;;;;;;12.43;6.45;;;1.90;99.90;;;2.32;100.00;99623.59;5148541;27;41872;-78
2022/11/15 03:25:03;;;;;;;13.45;6.72;;;1.80;99.90;;;2.25;100.00;99612.28;5148246;27;41680;-80
2022/11/15 03:27:55;;;;;;;12.77;6.15;;;1.80;99.90;;;2.29;100.00;99616.06;5133178;27;40388;-78
2022/11/15 03:30:44;;;;;;;11.13;5.28;;;1.80;99.90;;;2.21;100.00;99613.84;5148060;27;40343;-78
2022/11/15 03:33:31;;;;;;;8.93;4.45;;;1.70;99.90;;;2.23;100.00;99601.00;5148139;27;42496;-78
2022/11/15 03:36:23;;;;;;;9.50;4.35;;;1.70;99.90;;;2.15;100.00;99597.75;5148109;27;41133;-78
2022/11/15 03:39:10;;;;;;;9.20;4.68;;;1.60;99.90;;;2.07;100.00;99598.22;5149407;27;41023;-81
2022/11/15 03:42:12;;;;;;;9.52;4.53;;;1.60;99.90;;;2.09;100.00;99590.72;5148265;27;40612;-79
2022/11/15 03:45:06;;;;;;;8.73;4.10;;;1.60;99.90;;;2.08;100.00;99597.13;5147498;27;41775;-79
2022/11/15 03:47:58;;;;;;;9.57;4.35;;;1.50;99.90;;;2.28;100.00;99593.03;5148202;27;42334;-79
2022/11/15 03:50:46;;;;;;;11.23;4.28;;;1.70;99.90;;;2.27;100.00;99591.41;5147851;27;41117;-80
2022/11/15 03:53:35;;;;;;;8.15;4.10;;;1.70;99.90;;;2.19;100.00;99581.97;5132910;27;39012;-79
2022/11/15 03:56:22;;;;;;;7.75;4.22;;;1.80;99.90;;;2.23;100.00;99580.41;5147814;27;42855;-79
2022/11/15 03:59:09;;;;;;;8.55;4.15;;;1.70;99.90;;;2.26;100.00;99571.03;5147900;27;42280;-80
2022/11/15 04:01:55;;;;;;;9.23;4.00;;;1.70;99.90;;;2.46;100.00;99570.41;5147871;27;40162;-80
2022/11/15 04:04:42;;;;;;;9.10;4.25;;;1.80;99.90;;;2.40;100.00;99561.53;5147645;27;40151;-80
2022/11/15 04:07:29;;;;;;;7.95;3.05;;;1.90;99.90;;;2.40;100.00;99561.53;5147682;27;41583;-78
2022/11/15 04:10:18;;;;;;;6.75;3.05;;;1.90;99.90;;;1.99;100.00;99555.81;5147711;27;42177;-78
2022/11/15 04:13:06;;;;;;;6.20;2.63;;;1.50;99.90;;;1.97;100.00;99552.59;5146977;27;42165;-77
2022/11/15 04:15:53;;;;;;;4.80;2.10;;;1.50;99.90;;;1.83;100.00;99546.03;5132309;27;40103;-78
2022/11/15 04:18:40;;;;;;;6.15;2.72;;;1.30;99.90;;;1.69;100.00;99542.94;5147441;27;42901;-75
2022/11/15 04:24:31;;;;;;;4.90;1.90;;;1.20;99.90;;;1.49;100.00;99538.16;5147463;27;40502;-77
2022/11/15 04:27:19;;;;;;;4.65;2.22;;;1.20;99.90;;;1.57;100.00;99529.69;5147483;27;39982;-80
2022/11/15 04:30:09;;;;;;;3.63;1.63;;;1.20;99.90;;;1.56;100.00;99525.44;5147111;27;41765;-81
2022/11/15 04:32:56;;;;;;;6.43;2.63;;;1.20;99.90;;;1.67;100.00;99519.09;5147449;27;42154;-81
2022/11/15 04:37:11;;;;;;;4.45;2.20;;;1.30;99.90;;;1.75;100.00;99513.28;5147289;27;40188;-79
2022/11/15 04:38:51;;;;;;;4.65;2.05;;;1.40;99.90;;;2.04;100.00;99510.38;5149075;27;39973;-77
2022/11/15 04:41:38;;;;;;;5.28;2.22;;;1.50;99.90;;;1.87;100.00;99490.91;5146857;27;42559;-81
2022/11/15 04:44:26;;;;;;;6.43;2.92;;;1.50;99.90;;;2.06;100.00;99486.81;5147362;27;41353;-80
2022/11/15 04:47:13;;;;;;;6.35;2.72;;;1.60;99.90;;;2.21;100.00;99477.28;5131518;27;41058;-80
2022/11/15 04:50:00;;;;;;;5.95;3.05;;;1.60;99.90;;;2.21;100.00;99477.28;5147110;27;40028;-82
2022/11/15 04:52:53;;;;;;;5.57;2.50;;;1.70;99.90;;;2.08;100.00;99468.63;5147146;27;42693;-81
2022/11/15 04:55:41;;;;;;;5.68;2.40;;;1.60;99.90;;;2.03;100.00;99457.88;5146987;27;41349;-81
2022/11/15 04:58:27;;;;;;;5.07;2.15;;;1.50;98.10;;;1.97;100.00;99450.88;5146854;27;40136;-78
2022/11/15 05:01:16;;;;;;;6.30;3.00;;;1.50;99.90;;;1.96;100.00;99454.59;5147006;27;40909;-79
2022/11/15 05:04:22;;;;;;;5.82;2.95;;;1.60;99.90;;;1.95;100.00;99458.34;5146739;27;41772;-76
2022/11/15 05:07:09;;;;;;;5.47;2.53;;;1.80;99.90;;;2.22;100.00;99455.59;5146706;27;42180;-78
2022/11/15 05:09:56;;;;;;;5.78;2.80;;;1.80;99.90;;;2.28;100.00;99457.25;5146397;27;41170;-78
2022/11/15 05:12:43;;;;;;;7.47;3.28;;;1.80;99.90;;;2.33;100.00;99448.44;5146602;27;40994;-78
2022/11/15 05:15:30;;;;;;;5.70;2.75;;;1.90;99.50;;;2.29;100.00;99436.63;5146425;27;41594;-76
2022/11/15 05:18:18;;;;;;;6.13;3.40;;;1.90;97.90;;;2.28;100.00;99440.38;5146513;27;40770;-76
2022/11/15 05:21:06;;;;;;;7.95;3.60;;;1.80;98.40;;;2.38;100.00;99428.94;5146502;27;40919;-78
2022/11/15 05:23:54;;;;;;;8.30;3.75;;;1.90;99.40;;;2.34;100.00;99420.59;5162679;27;39741;-77
2022/11/15 05:26:41;;;;;;;9.88;4.22;;;2.00;99.30;;;2.38;100.00;99419.00;5166790;27;41733;-77
2022/11/15 05:29:28;;;;;;;9.50;4.85;;;2.00;98.40;;;2.53;100.00;99418.28;5162186;27;41623;-76
2022/11/15 05:32:15;;;;;;;8.50;4.15;;;2.00;98.30;;;2.59;100.00;99409.22;5165953;27;40534;-76
2022/11/15 05:35:05;;;;;;;;;;;2.00;97.40;;;2.60;100.00;99410.84;5166297;27;40830;-78
2022/11/15 05:37:52;;;;;;;7.95;4.50;;;2.00;97.00;;;2.68;100.00;99412.19;5163232;27;41712;-78
2022/11/15 05:40:39;;;;;;;6.93;3.47;;;2.10;97.10;;;2.57;100.00;99410.53;5145847;27;41131;-76
2022/11/15 05:43:26;;;;;;;8.95;4.35;;;2.00;96.90;;;2.45;100.00;99400.84;5147844;27;41089;-77
2022/11/15 05:46:14;;;;;;;9.48;4.60;;;2.00;97.40;;;2.48;100.00;99405.69;5148855;27;39860;-76
2022/11/15 05:49:01;;;;;;;10.73;4.40;;;1.90;98.70;;;2.31;100.00;99407.72;5149579;27;42943;-78
2022/11/15 05:51:51;;;;;;;10.30;4.35;;;1.80;99.90;;;2.31;100.00;99413.88;5149443;27;40951;-76
2022/11/15 05:54:38;;;;;;;9.13;4.80;;;1.90;99.90;;;2.33;100.00;99406.38;5149318;27;41004;-76
2022/11/15 05:57:26;;;;;;;10.70;5.18;;;1.90;99.90;;;2.26;100.00;99394.28;5149644;27;39812;-77
2022/11/15 06:00:14;;;;;;;;;;;1.90;99.90;;;2.42;100.00;99395.22;5149816;27;42616;-79
2022/11/15 06:03:00;;;;;;;10.40;5.47;;;1.90;99.90;;;2.66;100.00;99392.91;5149408;27;41163;-78
2022/11/15 06:05:47;;;;;;;9.98;5.20;;;2.10;98.50;;;2.80;100.00;99385.97;5148721;27;40875;-76
2022/11/15 06:08:36;;;;;;;10.85;5.68;;;2.10;98.00;;;2.73;100.00;99380.06;5148839;27;41714;-79
2022/11/15 06:11:23;;;;;;;11.88;5.22;;;2.10;95.10;;;2.80;100.00;99377.94;5157984;27;42646;-77
2022/11/15 06:14:10;;;;;;;9.30;5.60;;;2.10;94.40;;;2.59;100.00;99369.03;5143641;27;40712;-79
2022/11/15 06:16:57;;;;;;;12.15;5.50;;;2.00;95.00;;;2.50;100.00;99366.03;5149316;27;40291;-74
2022/11/15 06:19:44;;;;;;;13.40;5.90;;;2.00;99.90;;;2.56;100.00;99366.06;5133344;27;38882;-79
2022/11/15 06:22:31;;;;;;;9.75;5.53;;;2.00;99.90;;;2.60;100.00;99346.53;5133446;27;41356;-79
2022/11/15 06:25:19;;;;;;;12.73;5.85;;;2.00;99.90;;;2.74;100.00;99357.53;5133502;27;40087;-80
2022/11/15 06:28:06;;;;;;;11.65;5.88;;;2.20;99.90;;;2.82;100.00;99359.75;5149086;27;41206;-81
2022/11/15 06:30:53;;;;;;;10.15;5.43;;;2.20;99.90;;;2.85;100.00;99350.34;5148991;27;39782;-78
2022/11/15 06:33:41;;;;;;;10.82;5.65;;;2.20;99.90;;;2.99;100.00;99342.59;5148353;27;42558;-77
2022/11/15 06:36:27;;;;;;;;;;;2.30;99.90;;;3.05;100.00;99345.06;5148209;27;41245;-77
2022/11/15 06:39:14;;;;;;;12.65;5.72;;;2.40;99.90;;;3.14;100.00;99350.69;5150508;27;40795;-79
2022/11/15 06:42:02;;;;;;;9.98;5.20;;;2.40;97.00;;;2.95;100.00;99336.19;5148924;27;40176;-81
2022/11/15 06:44:50;;;;;;;13.32;6.30;;;2.40;94.60;;;2.99;100.00;99339.94;5148721;27;41367;-80
2022/11/15 06:47:36;;;;;;;11.63;5.72;;;2.40;94.10;;;3.04;100.00;99334.59;5148868;27;42436;-78
2022/11/15 06:50:23;;;;;;;11.88;6.13;;;2.40;95.10;;;2.96;100.00;99327.88;5149268;27;40437;-79
2022/11/15 06:53:11;;;;;;;10.00;5.45;;;2.40;95.10;;;2.99;100.00;99326.53;5132717;27;38876;-78
2022/11/15 06:56:01;;;;;;;12.27;5.30;;;2.30;95.60;;;3.04;100.00;99330.03;5148730;27;42523;-79
2022/11/15 06:58:50;;;;;;;10.68;5.55;;;2.40;97.80;;;3.11;100.00;99319.03;5148814;27;42097;-74
2022/11/15 07:01:36;;;;;;;8.30;5.70;;;2.40;97.50;;;3.03;100.00;99319.56;5148483;27;40882;-79
2022/11/15 07:04:23;;;;;;;15.18;6.68;;;2.40;99.70;;;2.86;100.00;99311.75;5149106;27;40952;-78
2022/11/15 07:07:11;;;;;;;12.10;7.15;;;2.30;99.90;;;2.79;100.00;99308.53;5148593;27;43202;-80
2022/11/15 07:09:58;;;;;;;10.40;6.30;;;2.30;99.90;;;2.98;100.00;99314.22;5148874;27;41232;-78
2022/11/15 07:12:48;;;;;;;10.80;6.47;;;2.40;99.90;;;3.00;100.00;99307.50;5148760;27;39703;-78
2022/11/15 07:15:37;;;;;;;11.95;6.40;;;2.40;99.90;;;3.02;100.00;99300.00;5148433;27;40031;-79
2022/11/15 07:18:24;;;;;;;13.30;7.90;;;2.40;99.90;;;3.03;100.00;99311.53;5151862;27;41850;-81
2022/11/15 07:21:12;;;;;;;11.73;6.33;;;2.40;99.90;;;3.10;100.00;99301.34;5148565;27;41345;-79
2022/11/15 07:23:59;;;;;;;12.77;6.63;;;2.40;99.90;;;3.15;100.00;99297.88;5148476;27;39980;-79
2022/11/15 07:26:46;;;;;;;12.13;6.32;;;2.40;99.90;;;3.15;100.00;99290.63;5148604;27;40301;-78
2022/11/15 07:29:33;;;;;;;12.13;6.20;;;2.40;99.90;;;3.13;100.00;99300.81;5147238;27;42560;-79
2022/11/15 07:32:21;;;;;;;11.65;6.32;;;2.40;99.90;;;3.12;100.00;99296.53;5148552;27;41240;-78
2022/11/15 07:35:09;;;;;;;13.15;6.93;;;2.50;99.90;;;3.22;100.00;99299.19;5148325;27;40866;-81
2022/11/15 07:37:57;;;;;;;;;;;2.50;99.90;;;3.29;100.00;99292.75;5148771;27;39951;-77
2022/11/15 07:40:44;;;;;;;11.48;6.35;;;2.50;99.90;;;3.40;100.00;99305.13;5148376;27;43186;-80
2022/11/15 07:43:33;;;;;;;11.98;6.38;;;2.60;99.90;;;3.51;100.00;99277.19;5148438;27;41016;-77
2022/11/15 07:46:20;;;;;;;11.48;5.93;;;2.70;99.90;;;3.38;100.00;99285.78;5154166;27;40262;-80
2022/11/15 07:49:09;;;;;;;13.95;5.80;;;2.60;99.90;;;3.49;100.00;99270.50;5157167;27;39803;-75
2022/11/15 07:51:56;;;;;;;11.02;6.47;;;2.70;99.90;;;3.60;100.00;99275.59;5133143;27;41416;-82
2022/11/15 07:54:43;;;;;;;10.60;6.30;;;2.80;99.90;;;3.62;100.00;99269.16;5148103;27;41953;-79
2022/11/15 07:57:31;;;;;;;13.00;7.53;;;2.70;99.90;;;3.85;100.00;99273.94;5132413;27;41044;-81
2022/11/15 08:00:19;;;;;;;13.65;7.65;;;2.80;99.90;;;3.96;100.00;99266.66;5147800;27;41666;-81
2022/11/15 08:03:08;;;;;;;12.13;6.93;;;3.00;99.90;;;3.91;100.00;99263.97;5147768;27;42978;-79
2022/11/15 08:05:57;;;;;;;12.70;7.38;;;3.00;99.90;;;3.78;100.00;99259.97;5147125;27;41496;-81
2022/11/15 08:08:44;;;;;;;10.90;6.75;;;2.90;99.90;;;3.73;100.00;99246.59;5148200;27;40258;-81
2022/11/15 08:11:31;;;;;;;11.65;6.53;;;2.80;99.90;;;3.63;100.00;99239.38;5147768;27;39673;-79
2022/11/15 08:14:18;;;;;;;10.32;6.00;;;2.70;99.90;;;3.67;100.00;99240.41;5147747;27;41277;-80
2022/11/15 08:17:05;;;;;;;10.93;6.10;;;2.80;99.90;;;3.84;100.00;99229.38;5147939;27;41181;-79
2022/11/15 08:19:52;;;;;;;10.07;5.50;;;2.90;99.90;;;4.28;100.00;99234.00;5147353;27;40078;-81
2022/11/15 08:22:41;;;;;;;11.32;5.90;;;3.20;99.90;;;4.22;100.00;99218.19;5147443;27;41156;-79
2022/11/15 08:25:29;;;;;;;10.93;6.45;;;3.20;99.90;;;4.25;100.00;99223.81;5131474;27;40832;-75
2022/11/15 08:28:18;;;;;;;8.88;5.78;;;3.30;99.90;;;4.25;100.00;99215.75;5146972;27;41265;-79
2022/11/15 08:31:06;;;;;;;8.25;5.47;;;3.20;99.90;;;4.20;100.00;99212.31;5149117;27;40742;-78
2022/11/15 08:33:53;;;;;;;9.90;5.75;;;3.10;99.90;;;4.20;100.00;99205.03;5147286;27;39807;-79
2022/11/15 08:36:40;;;;;;;11.48;5.95;;;3.10;99.90;;;4.34;100.00;99204.44;5146938;27;42578;-78
2022/11/15 08:39:29;;;;;;;11.18;6.40;;;3.20;99.90;;;4.09;100.00;99195.44;5149648;27;41252;-77
2022/11/15 08:42:16;;;;;;;9.38;5.47;;;3.10;99.90;;;3.99;100.00;99200.84;5147446;27;41141;-77
2022/11/15 08:45:05;;;;;;;10.50;5.63;;;3.10;99.90;;;4.11;100.00;99195.97;5149656;27;20144;-78
2022/11/15 08:47:52;;;;;;;9.57;5.80;;;3.20;99.90;;;4.20;100.00;99194.31;5147093;27;41890;-80
2022/11/15 08:50:39;;;;;;;8.80;5.22;;;3.20;99.90;;;4.13;100.00;99183.06;5146776;27;42784;-81
2022/11/15 08:53:26;;;;;;;10.45;5.47;;;3.20;99.90;;;4.07;100.00;99190.34;5146332;27;40909;-78
2022/11/15 08:56:16;;;;;;;9.45;4.93;;;3.20;99.90;;;4.03;100.00;99188.47;5147133;27;41019;-78
2022/11/15 08:59:03;;;;;;;10.25;6.15;;;3.20;99.90;;;4.14;100.00;99187.34;5146660;27;42807;-81
2022/11/15 09:01:50;;;;;;;10.18;4.95;;;3.30;99.90;;;4.25;100.00;99174.66;5147080;27;41514;-78
2022/11/15 09:04:38;;;;;;;9.88;5.68;;;3.30;99.90;;;4.13;100.00;99170.44;5131620;27;39169;-77
2022/11/15 09:07:25;;;;;;;11.88;5.97;;;3.20;99.90;;;4.08;100.00;99169.66;5131288;27;40519;-81
2022/11/15 09:10:12;;;;;;;7.60;5.25;;;3.20;99.90;;;4.14;100.00;99163.19;5150848;27;41588;-82
2022/11/15 09:13:00;;;;;;;10.80;6.20;;;3.30;99.90;;;4.35;100.00;99168.44;5146916;27;41341;-77
2022/11/15 09:15:48;;;;;;;11.45;6.50;;;3.40;99.90;;;4.24;100.00;99149.69;5146806;27;40447;-82
2022/11/15 09:18:35;;;;;;;10.00;5.40;;;3.40;99.90;;;4.24;100.00;99147.00;5145738;27;40895;-79
2022/11/15 09:21:23;;;;;;;13.30;6.35;;;3.30;99.90;;;4.47;100.00;99155.44;5130556;27;40682;-78
2022/11/15 09:24:10;;;;;;;11.50;6.13;;;3.50;99.90;;;4.56;100.00;99143.03;5146496;27;41335;-80
2022/11/15 09:26:57;;;;;;;13.15;6.82;;;3.60;99.90;;;4.46;100.00;99132.38;5147423;27;40480;-80
2022/11/15 09:29:46;;;;;;;14.18;6.72;;;3.60;99.90;;;4.56;100.00;99137.66;5146705;27;40115;-81
2022/11/15 09:32:33;;;;;;;12.50;6.57;;;3.80;99.90;;;4.67;100.00;99131.13;5146679;27;42188;-80
2022/11/15 09:35:20;;;;;;;11.48;5.65;;;3.70;97.60;;;4.60;100.00;99132.53;5146186;27;41324;-80
2022/11/15 09:38:07;;;;;;;11.00;5.47;;;3.70;95.60;;;4.66;100.00;99134.09;5146219;27;40204;-80
2022/11/15 09:41:37;;;;;;;10.05;5.75;;;3.70;94.60;;;4.83;100.00;99126.44;5150286;27;40681;-80
2022/11/15 09:44:42;;;;;;;10.85;5.85;;;3.90;93.40;;;4.81;100.00;99117.03;5062035;28;41889;-80
2022/11/15 09:48:01;;;;;;;9.05;5.30;;;4.00;90.40;;;5.02;100.00;99123.03;5061700;28;41131;-77
2022/11/15 09:50:59;;;;;;;11.05;6.03;;;4.20;85.30;;;5.03;100.00;99120.06;5081526;28;40794;-80
2022/11/15 09:53:36;;;;;;;8.73;5.20;;;4.10;78.10;;;5.07;100.00;99114.91;5064624;28;41719;-80
2022/11/15 09:56:14;;;;;;;10.05;5.53;;;4.20;65.10;;;5.35;100.00;99099.03;5061806;28;42408;-81
2022/11/15 09:58:56;;;;;;;10.30;5.80;;;4.40;60.40;;;5.58;98.67;99092.03;5062746;28;41079;-80
2022/11/15 10:01:39;;;;;;;13.50;6.40;;;4.50;35.80;;;4.94;100.00;99096.75;5048031;28;39789;-80
2022/11/15 10:04:09;;;;;;;10.32;6.13;;;4.20;39.80;;;4.97;100.00;99099.69;5061708;28;39920;-81
2022/11/15 10:06:45;;;;;;;10.57;5.93;;;4.20;36.60;;;5.16;100.00;99090.91;5064894;28;40998;-80
2022/11/15 10:09:19;;;;;;;11.23;6.45;;;4.20;43.80;;;4.95;100.00;99091.06;5061110;28;42084;-84
2022/11/15 10:11:48;;;;;;;12.38;6.47;;;4.10;45.00;;;4.70;100.00;99085.94;5050268;28;39680;-83
2022/11/15 10:14:21;;;;;;;15.32;7.00;;;4.00;48.30;;;4.43;100.00;99079.97;5062555;28;39992;-82
2022/11/15 10:17:25;;;;;;;10.10;6.15;;;3.80;63.50;;;4.25;100.00;99068.00;5061583;28;41328;-81
2022/11/15 10:20:11;;;;;;;12.23;6.63;;;3.60;84.80;;;4.46;100.00;99079.41;5146333;27;42165;-81
2022/11/15 10:22:47;;;;;;;11.13;6.28;;;3.70;93.80;;;4.63;100.00;99072.84;5127598;27;40422;-80
2022/11/15 10:25:22;;;;;;;11.10;6.50;;;3.80;95.80;;;4.62;100.00;99066.66;5145789;27;40013;-78
2022/11/15 10:27:57;;;;;;;11.05;6.72;;;3.90;97.10;;;4.82;100.00;99070.25;5130830;27;40474;-79
2022/11/15 10:30:34;;;;;;;13.18;6.47;;;4.00;94.50;;;5.29;100.00;99057.91;5149038;27;42534;-79
2022/11/15 10:33:30;;;;;;;10.75;6.30;;;4.30;99.90;;;5.19;100.00;99056.13;5161895;27;40870;-78
2022/11/15 10:36:25;;;;;;;10.98;6.40;;;4.40;94.40;;;5.49;100.00;99050.69;5150772;27;39207;-79
2022/11/15 10:38:59;;;;;;;13.57;6.53;;;4.60;85.60;;;5.68;100.00;99038.03;5170453;27;42772;-80
2022/11/15 10:41:39;;;;;;;10.07;5.55;;;4.60;70.80;;;5.52;100.00;99039.34;5171743;27;41083;-80
2022/11/15 10:44:21;;;;;;;11.98;6.70;;;4.60;66.30;;;5.52;100.00;99039.34;5150772;27;41236;-80
2022/11/15 10:47:25;;;;;;;11.15;6.38;;;4.60;55.40;;;5.71;100.00;99037.44;5154789;27;41355;-80
2022/11/15 10:50:01;;;;;;;14.00;6.40;;;4.70;56.00;;;6.13;99.15;99026.13;5170047;27;41662;-79
2022/11/15 10:52:34;;;;;;;11.20;6.65;;;5.00;54.00;;;6.02;99.39;99030.88;5170014;27;41473;-79
2022/11/15 10:55:25;;;;;;;11.20;6.03;;;4.90;36.70;;;5.92;99.40;99021.81;5170012;27;41004;-80
2022/11/15 10:57:57;;;;;;;11.68;6.20;;;4.90;35.10;;;5.89;99.42;99022.41;5169581;27;40148;-81
2022/11/15 11:00:35;;;;;;;10.32;6.30;;;4.80;32.20;;;6.10;98.10;99011.34;5169719;27;42093;-82
2022/11/15 11:03:07;;;;;;;11.57;5.82;;;5.10;26.90;;;5.96;98.76;99002.38;5169220;27;41064;-80
2022/11/15 11:05:38;;;;;;;12.50;6.70;;;4.90;24.30;;;6.01;99.39;99002.31;5169846;27;40955;-80
2022/11/15 11:08:26;;;;;;;11.77;5.88;;;5.00;26.30;;;5.92;99.68;98999.47;5169402;27;40008;-78
2022/11/15 11:10:55;;;;;;;;;;;5.00;23.90;;;5.85;99.58;98993.66;5154608;27;41564;-79
2022/11/15 11:13:26;;;;;;;10.90;5.88;;;4.90;18.70;;;6.16;98.50;98998.59;5168721;27;41468;-78
2022/11/15 11:16:01;;;;;;;13.70;6.97;;;5.10;25.60;;;6.24;98.00;98989.84;5168762;27;40068;-79
2022/11/15 11:18:38;;;;;;;15.85;8.77;;;5.20;23.00;;;5.93;99.19;98987.59;5169548;27;39554;-78
2022/11/15 11:21:14;;;;;;;15.57;8.73;;;5.00;18.10;;;5.98;98.71;98987.53;5154099;27;41686;-79
2022/11/15 11:23:53;;;;;;;16.02;9.25;;;5.00;16.40;;;5.68;100.00;98978.81;5169563;27;41681;-80
2022/11/15 11:26:43;;;;;;;14.30;9.18;;;4.80;21.80;;;5.26;100.00;98975.06;5169465;27;40414;-77
2022/11/15 11:29:38;;;;;;;12.07;7.90;;;4.50;27.60;;;5.14;100.00;98972.00;5169222;27;40002;-81
2022/11/15 11:32:27;;;;;;;16.65;8.57;;;4.30;49.20;;;5.19;100.00;98971.94;5169539;27;42450;-80
2022/11/15 11:35:10;;;;;;;14.23;7.88;;;4.40;56.70;;;5.02;100.00;98967.84;5169606;27;42242;-78
2022/11/15 11:37:47;;;;;;;11.50;7.18;;;4.30;69.00;;;5.29;100.00;98963.72;5153544;27;41536;-77
2022/11/15 11:40:30;;;;;;;13.52;7.88;;;4.50;79.00;;;5.35;100.00;98962.56;5171457;27;40738;-79
2022/11/15 11:43:10;;;;;;;12.82;7.85;;;4.50;74.70;;;5.28;100.00;98962.13;5169342;27;41730;-80
2022/11/15 11:46:11;;;;;;;16.58;8.85;;;4.40;80.90;;;5.24;100.00;98953.03;5169080;27;41259;-79
2022/11/15 11:48:44;;;;;;;12.55;7.93;;;4.50;85.50;;;5.22;100.00;98956.03;5169364;27;40159;-79
2022/11/15 11:51:21;;;;;;;13.35;8.20;;;4.50;85.50;;;4.83;100.00;98948.16;5169026;27;39420;-78
2022/11/15 11:53:55;;;;;;;14.93;8.55;;;4.40;85.50;;;5.20;100.00;98941.25;5168904;27;41731;-80
2022/11/15 11:56:30;;;;;;;41.78;23.02;;;4.40;91.20;;;5.27;100.00;98936.31;5169008;27;41694;-79
2022/11/15 11:59:08;;;;;;;43.45;27.33;;;4.50;97.10;;;5.28;100.00;98943.28;5168895;27;40243;-77